sensor_id;sensor_type;location;lat;lon;timestamp;pressure;altitude;pressure_sealevel;temperature;humidity
60611;BME280;46439;51.164;13.572;2023-02-15T00:01:19;101588.42;;;2.89;85.09
60611;BME280;46439;51.164;13.572;2023-02-15T00:03:49;101593.95;;;2.89;85.29
60611;BME280;46439;51.164;13.572;2023-02-15T00:06:18;101593.88;;;2.87;85.10
60611;BME280;46439;51.164;13.572;2023-02-15T00:08:46;101591.05;;;2.86;85.05
60611;BME280;46439;51.164;13.572;2023-02-15T00:11:17;101595.17;;;2.86;85.11
60611;BME280;46439;51.164;13.572;2023-02-15T00:14:07;101592.76;;;2.85;84.75
60611;BME280;46439;51.164;13.572;2023-02-15T00:16:37;101586.66;;;2.80;85.35
60611;BME280;46439;51.164;13.572;2023-02-15T00:19:06;101587.91;;;2.76;84.76
60611;BME280;46439;51.164;13.572;2023-02-15T00:21:39;101584.75;;;2.76;85.13
60611;BME280;46439;51.164;13.572;2023-02-15T00:24:10;101581.11;;;2.71;85.18
60611;BME280;46439;51.164;13.572;2023-02-15T00:26:41;101576.98;;;2.59;85.02
60611;BME280;46439;51.164;13.572;2023-02-15T00:29:11;101577.21;;;2.45;84.30
60611;BME280;46439;51.164;13.572;2023-02-15T00:31:40;101576.83;;;2.40;83.88
60611;BME280;46439;51.164;13.572;2023-02-15T00:34:12;101573.76;;;2.41;84.18
60611;BME280;46439;51.164;13.572;2023-02-15T00:36:41;101574.74;;;2.42;84.32
60611;BME280;46439;51.164;13.572;2023-02-15T00:39:10;101573.14;;;2.45;84.73
60611;BME280;46439;51.164;13.572;2023-02-15T00:41:39;101570.15;;;2.45;84.68
60611;BME280;46439;51.164;13.572;2023-02-15T00:44:08;101568.83;;;2.40;84.50
60611;BME280;46439;51.164;13.572;2023-02-15T00:46:37;101567.64;;;2.39;84.40
60611;BME280;46439;51.164;13.572;2023-02-15T00:49:06;101566.61;;;2.38;84.67
60611;BME280;46439;51.164;13.572;2023-02-15T00:51:34;101563.58;;;2.36;84.28
60611;BME280;46439;51.164;13.572;2023-02-15T00:54:03;101563.31;;;2.34;84.29
60611;BME280;46439;51.164;13.572;2023-02-15T00:56:31;101562.25;;;2.34;84.51
60611;BME280;46439;51.164;13.572;2023-02-15T00:59:00;101564.36;;;2.31;84.61
60611;BME280;46439;51.164;13.572;2023-02-15T01:01:28;101558.60;;;2.29;84.52
60611;BME280;46439;51.164;13.572;2023-02-15T01:03:57;101557.13;;;2.27;84.34
60611;BME280;46439;51.164;13.572;2023-02-15T01:06:25;101549.25;;;2.25;84.22
60611;BME280;46439;51.164;13.572;2023-02-15T01:08:54;101548.77;;;2.24;84.42
60611;BME280;46439;51.164;13.572;2023-02-15T01:11:23;101549.27;;;2.21;84.35
60611;BME280;46439;51.164;13.572;2023-02-15T01:13:53;101547.30;;;2.21;84.40
60611;BME280;46439;51.164;13.572;2023-02-15T01:16:22;101551.57;;;2.22;84.29
60611;BME280;46439;51.164;13.572;2023-02-15T01:18:51;101550.93;;;2.20;84.47
60611;BME280;46439;51.164;13.572;2023-02-15T01:21:22;101549.61;;;2.18;84.72
60611;BME280;46439;51.164;13.572;2023-02-15T01:23:51;101548.73;;;2.18;84.05
60611;BME280;46439;51.164;13.572;2023-02-15T01:26:19;101545.61;;;2.14;84.61
60611;BME280;46439;51.164;13.572;2023-02-15T01:28:48;101539.56;;;2.10;84.40
60611;BME280;46439;51.164;13.572;2023-02-15T01:31:19;101537.52;;;2.12;84.54
60611;BME280;46439;51.164;13.572;2023-02-15T01:33:48;101535.06;;;2.15;84.59
60611;BME280;46439;51.164;13.572;2023-02-15T01:36:17;101530.85;;;2.17;84.52
60611;BME280;46439;51.164;13.572;2023-02-15T01:38:45;101530.23;;;2.19;85.09
60611;BME280;46439;51.164;13.572;2023-02-15T01:41:14;101528.70;;;2.21;84.62
60611;BME280;46439;51.164;13.572;2023-02-15T01:43:53;101525.23;;;2.16;84.74
60611;BME280;46439;51.164;13.572;2023-02-15T01:46:27;101517.99;;;2.12;84.30
60611;BME280;46439;51.164;13.572;2023-02-15T01:49:03;101515.12;;;2.06;84.41
60611;BME280;46439;51.164;13.572;2023-02-15T01:51:34;101511.52;;;2.01;84.02
60611;BME280;46439;51.164;13.572;2023-02-15T01:54:09;101510.54;;;1.99;84.21
60611;BME280;46439;51.164;13.572;2023-02-15T01:56:41;101502.11;;;1.98;84.44
60611;BME280;46439;51.164;13.572;2023-02-15T01:59:13;101499.55;;;1.95;84.29
60611;BME280;46439;51.164;13.572;2023-02-15T02:01:43;101493.18;;;1.89;84.11
60611;BME280;46439;51.164;13.572;2023-02-15T02:04:15;101492.34;;;1.88;84.19
60611;BME280;46439;51.164;13.572;2023-02-15T02:06:45;101492.34;;;1.88;84.23
60611;BME280;46439;51.164;13.572;2023-02-15T02:09:15;101493.86;;;1.89;84.22
60611;BME280;46439;51.164;13.572;2023-02-15T02:11:46;101490.08;;;1.90;84.12
60611;BME280;46439;51.164;13.572;2023-02-15T02:14:16;101483.66;;;1.91;84.30
60611;BME280;46439;51.164;13.572;2023-02-15T02:16:51;101481.73;;;1.90;84.23
60611;BME280;46439;51.164;13.572;2023-02-15T02:19:56;101484.45;;;1.92;84.55
60611;BME280;46439;51.164;13.572;2023-02-15T02:23:06;101484.32;;;1.91;84.57
60611;BME280;46439;51.164;13.572;2023-02-15T02:25:55;101480.88;;;1.86;84.53
60611;BME280;46439;51.164;13.572;2023-02-15T02:28:52;101479.30;;;1.86;84.12
60611;BME280;46439;51.164;13.572;2023-02-15T02:31:44;101478.99;;;1.88;84.46
60611;BME280;46439;51.164;13.572;2023-02-15T02:34:18;101478.81;;;1.88;84.23
60611;BME280;46439;51.164;13.572;2023-02-15T02:36:55;101476.90;;;1.88;84.61
60611;BME280;46439;51.164;13.572;2023-02-15T02:39:33;101474.29;;;1.87;84.60
60611;BME280;46439;51.164;13.572;2023-02-15T02:42:09;101473.61;;;1.86;84.75
60611;BME280;46439;51.164;13.572;2023-02-15T02:44:43;101473.03;;;1.87;84.55
60611;BME280;46439;51.164;13.572;2023-02-15T02:47:15;101472.19;;;1.89;84.65
60611;BME280;46439;51.164;13.572;2023-02-15T02:49:46;101471.35;;;1.91;84.54
60611;BME280;46439;51.164;13.572;2023-02-15T02:52:41;101467.39;;;1.93;84.61
60611;BME280;46439;51.164;13.572;2023-02-15T02:55:15;101464.95;;;1.95;84.71
60611;BME280;46439;51.164;13.572;2023-02-15T02:57:51;101464.71;;;1.96;84.95
60611;BME280;46439;51.164;13.572;2023-02-15T03:00:23;101461.45;;;1.98;85.01
60611;BME280;46439;51.164;13.572;2023-02-15T03:02:56;101465.13;;;1.98;84.81
60611;BME280;46439;51.164;13.572;2023-02-15T03:05:28;101462.08;;;1.99;84.80
60611;BME280;46439;51.164;13.572;2023-02-15T03:07:58;101460.02;;;1.98;84.93
60611;BME280;46439;51.164;13.572;2023-02-15T03:10:35;101464.31;;;1.97;84.81
60611;BME280;46439;51.164;13.572;2023-02-15T03:13:05;101461.48;;;1.97;84.53
60611;BME280;46439;51.164;13.572;2023-02-15T03:15:36;101465.73;;;1.97;84.80
60611;BME280;46439;51.164;13.572;2023-02-15T03:18:30;101472.63;;;1.98;84.87
60611;BME280;46439;51.164;13.572;2023-02-15T03:21:02;101473.80;;;1.96;84.59
60611;BME280;46439;51.164;13.572;2023-02-15T03:23:33;101475.73;;;1.93;84.82
60611;BME280;46439;51.164;13.572;2023-02-15T03:26:06;101474.75;;;1.94;84.98
60611;BME280;46439;51.164;13.572;2023-02-15T03:28:38;101472.66;;;1.97;84.99
60611;BME280;46439;51.164;13.572;2023-02-15T03:31:10;101468.94;;;2.00;84.74
60611;BME280;46439;51.164;13.572;2023-02-15T03:33:45;101465.55;;;2.00;85.01
60611;BME280;46439;51.164;13.572;2023-02-15T03:36:20;101462.48;;;2.01;84.91
60611;BME280;46439;51.164;13.572;2023-02-15T03:38:53;101460.55;;;2.01;84.80
60611;BME280;46439;51.164;13.572;2023-02-15T03:41:29;101458.77;;;2.00;85.30
60611;BME280;46439;51.164;13.572;2023-02-15T03:44:03;101456.45;;;2.01;84.86
60611;BME280;46439;51.164;13.572;2023-02-15T03:46:35;101451.82;;;2.01;84.94
60611;BME280;46439;51.164;13.572;2023-02-15T03:49:08;101452.60;;;1.97;84.93
60611;BME280;46439;51.164;13.572;2023-02-15T03:51:42;101448.58;;;1.92;84.75
60611;BME280;46439;51.164;13.572;2023-02-15T03:54:14;101448.25;;;1.92;84.72
60611;BME280;46439;51.164;13.572;2023-02-15T03:57:10;101446.98;;;1.86;84.77
60611;BME280;46439;51.164;13.572;2023-02-15T03:59:57;101450.98;;;1.85;84.53
60611;BME280;46439;51.164;13.572;2023-02-15T04:02:57;101453.16;;;1.84;84.66
60611;BME280;46439;51.164;13.572;2023-02-15T04:05:28;101454.27;;;1.83;84.57
60611;BME280;46439;51.164;13.572;2023-02-15T04:07:57;101456.59;;;1.82;84.79
60611;BME280;46439;51.164;13.572;2023-02-15T04:10:25;101454.96;;;1.83;84.61
60611;BME280;46439;51.164;13.572;2023-02-15T04:13:13;101456.15;;;1.87;84.51
60611;BME280;46439;51.164;13.572;2023-02-15T04:15:41;101451.95;;;1.89;84.59
60611;BME280;46439;51.164;13.572;2023-02-15T04:18:28;101448.46;;;1.92;85.03
60611;BME280;46439;51.164;13.572;2023-02-15T04:21:16;101445.73;;;1.92;84.81
60611;BME280;46439;51.164;13.572;2023-02-15T04:24:03;101445.41;;;1.92;85.04
60611;BME280;46439;51.164;13.572;2023-02-15T04:26:51;101444.55;;;1.91;84.82
60611;BME280;46439;51.164;13.572;2023-02-15T04:29:22;101441.85;;;1.92;84.98
60611;BME280;46439;51.164;13.572;2023-02-15T04:31:51;101437.94;;;1.89;84.83
60611;BME280;46439;51.164;13.572;2023-02-15T04:34:20;101435.02;;;1.87;84.80
60611;BME280;46439;51.164;13.572;2023-02-15T04:36:48;101434.46;;;1.84;84.79
60611;BME280;46439;51.164;13.572;2023-02-15T04:39:19;101432.98;;;1.85;84.88
60611;BME280;46439;51.164;13.572;2023-02-15T04:41:47;101427.16;;;1.85;84.95
60611;BME280;46439;51.164;13.572;2023-02-15T04:44:16;101426.83;;;1.82;84.85
60611;BME280;46439;51.164;13.572;2023-02-15T04:46:45;101421.09;;;1.83;84.74
60611;BME280;46439;51.164;13.572;2023-02-15T04:49:13;101420.94;;;1.82;84.97
60611;BME280;46439;51.164;13.572;2023-02-15T04:51:42;101418.80;;;1.82;85.00
60611;BME280;46439;51.164;13.572;2023-02-15T04:54:10;101419.88;;;1.82;85.03
60611;BME280;46439;51.164;13.572;2023-02-15T04:56:39;101415.65;;;1.84;84.79
60611;BME280;46439;51.164;13.572;2023-02-15T04:59:08;101416.41;;;1.87;85.13
60611;BME280;46439;51.164;13.572;2023-02-15T05:01:37;101412.97;;;1.88;85.15
60611;BME280;46439;51.164;13.572;2023-02-15T05:04:06;101413.69;;;1.88;84.85
60611;BME280;46439;51.164;13.572;2023-02-15T05:06:34;101418.58;;;1.86;84.79
60611;BME280;46439;51.164;13.572;2023-02-15T05:09:03;101414.52;;;1.86;84.53
60611;BME280;46439;51.164;13.572;2023-02-15T05:11:31;101409.48;;;1.87;84.92
60611;BME280;46439;51.164;13.572;2023-02-15T05:14:00;101405.13;;;1.89;85.15
60611;BME280;46439;51.164;13.572;2023-02-15T05:16:28;101404.61;;;1.88;84.85
60611;BME280;46439;51.164;13.572;2023-02-15T05:18:57;101405.16;;;1.88;84.99
60611;BME280;46439;51.164;13.572;2023-02-15T05:21:25;101404.39;;;1.89;85.05
60611;BME280;46439;51.164;13.572;2023-02-15T05:23:54;101404.79;;;1.88;84.67
60611;BME280;46439;51.164;13.572;2023-02-15T05:26:24;101403.03;;;1.88;84.51
60611;BME280;46439;51.164;13.572;2023-02-15T05:29:11;101401.98;;;1.88;84.95
60611;BME280;46439;51.164;13.572;2023-02-15T05:31:40;101398.20;;;1.88;85.05
60611;BME280;46439;51.164;13.572;2023-02-15T05:34:08;101397.11;;;1.89;85.02
60611;BME280;46439;51.164;13.572;2023-02-15T05:36:37;101399.35;;;1.87;84.96
60611;BME280;46439;51.164;13.572;2023-02-15T05:39:05;101400.79;;;1.84;84.88
60611;BME280;46439;51.164;13.572;2023-02-15T05:41:36;101399.17;;;1.78;85.08
60611;BME280;46439;51.164;13.572;2023-02-15T05:44:05;101399.71;;;1.74;84.62
60611;BME280;46439;51.164;13.572;2023-02-15T05:46:33;101400.75;;;1.71;84.65
60611;BME280;46439;51.164;13.572;2023-02-15T05:49:02;101400.10;;;1.70;84.49
60611;BME280;46439;51.164;13.572;2023-02-15T05:51:30;101404.20;;;1.70;84.67
60611;BME280;46439;51.164;13.572;2023-02-15T05:53:59;101403.45;;;1.71;84.77
60611;BME280;46439;51.164;13.572;2023-02-15T05:56:27;101403.33;;;1.73;84.94
60611;BME280;46439;51.164;13.572;2023-02-15T05:58:56;101399.16;;;1.75;84.92
60611;BME280;46439;51.164;13.572;2023-02-15T06:01:24;101400.35;;;1.72;84.73
60611;BME280;46439;51.164;13.572;2023-02-15T06:03:53;101397.59;;;1.71;84.90
60611;BME280;46439;51.164;13.572;2023-02-15T06:06:24;101393.86;;;1.65;84.78
60611;BME280;46439;51.164;13.572;2023-02-15T06:08:52;101391.55;;;1.62;84.37
60611;BME280;46439;51.164;13.572;2023-02-15T06:11:20;101388.05;;;1.58;84.57
60611;BME280;46439;51.164;13.572;2023-02-15T06:13:49;101392.95;;;1.52;84.43
60611;BME280;46439;51.164;13.572;2023-02-15T06:16:17;101389.04;;;1.52;84.86
60611;BME280;46439;51.164;13.572;2023-02-15T06:18:46;101385.09;;;1.53;84.80
60611;BME280;46439;51.164;13.572;2023-02-15T06:21:14;101384.77;;;1.53;84.83
60611;BME280;46439;51.164;13.572;2023-02-15T06:23:43;101384.83;;;1.55;84.56
60611;BME280;46439;51.164;13.572;2023-02-15T06:26:11;101387.23;;;1.53;84.39
60611;BME280;46439;51.164;13.572;2023-02-15T06:28:40;101392.45;;;1.52;84.56
60611;BME280;46439;51.164;13.572;2023-02-15T06:31:09;101395.05;;;1.46;84.66
60611;BME280;46439;51.164;13.572;2023-02-15T06:33:37;101395.61;;;1.43;84.39
60611;BME280;46439;51.164;13.572;2023-02-15T06:36:07;101392.63;;;1.43;84.47
60611;BME280;46439;51.164;13.572;2023-02-15T06:38:35;101391.20;;;1.42;84.46
60611;BME280;46439;51.164;13.572;2023-02-15T06:41:04;101391.11;;;1.44;84.68
60611;BME280;46439;51.164;13.572;2023-02-15T06:43:32;101392.23;;;1.49;84.77
60611;BME280;46439;51.164;13.572;2023-02-15T06:46:02;101385.21;;;1.54;84.90
60611;BME280;46439;51.164;13.572;2023-02-15T06:48:30;101384.70;;;1.57;84.87
60611;BME280;46439;51.164;13.572;2023-02-15T06:50:59;101383.23;;;1.58;84.78
60611;BME280;46439;51.164;13.572;2023-02-15T06:53:28;101382.77;;;1.60;84.69
60611;BME280;46439;51.164;13.572;2023-02-15T06:56:01;101381.65;;;1.61;84.94
60611;BME280;46439;51.164;13.572;2023-02-15T06:58:31;101383.31;;;1.63;85.07
60611;BME280;46439;51.164;13.572;2023-02-15T07:00:59;101383.99;;;1.64;84.85
60611;BME280;46439;51.164;13.572;2023-02-15T07:03:28;101384.09;;;1.62;84.94
60611;BME280;46439;51.164;13.572;2023-02-15T07:05:57;101383.17;;;1.62;84.91
60611;BME280;46439;51.164;13.572;2023-02-15T07:08:27;101379.87;;;1.64;84.57
60611;BME280;46439;51.164;13.572;2023-02-15T07:10:57;101380.95;;;1.67;84.63
60611;BME280;46439;51.164;13.572;2023-02-15T07:13:46;101381.08;;;1.68;84.76
60611;BME280;46439;51.164;13.572;2023-02-15T07:16:14;101379.04;;;1.72;84.80
60611;BME280;46439;51.164;13.572;2023-02-15T07:18:43;101376.59;;;1.85;84.85
60611;BME280;46439;51.164;13.572;2023-02-15T07:21:11;101374.71;;;2.08;85.75
60611;BME280;46439;51.164;13.572;2023-02-15T07:23:40;101378.17;;;2.13;85.94
60611;BME280;46439;51.164;13.572;2023-02-15T07:26:09;101381.45;;;2.15;85.92
60611;BME280;46439;51.164;13.572;2023-02-15T07:28:37;101377.68;;;2.15;85.44
60611;BME280;46439;51.164;13.572;2023-02-15T07:31:06;101373.96;;;2.18;85.97
60611;BME280;46439;51.164;13.572;2023-02-15T07:33:35;101369.68;;;2.18;85.49
60611;BME280;46439;51.164;13.572;2023-02-15T07:36:05;101364.89;;;2.19;85.78
60611;BME280;46439;51.164;13.572;2023-02-15T07:38:35;101363.63;;;2.19;85.34
60611;BME280;46439;51.164;13.572;2023-02-15T07:41:06;101358.65;;;2.22;85.47
60611;BME280;46439;51.164;13.572;2023-02-15T07:43:36;101350.91;;;2.23;85.44
60611;BME280;46439;51.164;13.572;2023-02-15T07:46:07;101350.46;;;2.25;85.56
60611;BME280;46439;51.164;13.572;2023-02-15T07:48:36;101343.01;;;2.25;85.45
60611;BME280;46439;51.164;13.572;2023-02-15T07:51:07;101344.77;;;2.25;85.38
60611;BME280;46439;51.164;13.572;2023-02-15T07:53:38;101339.95;;;2.29;85.70
60611;BME280;46439;51.164;13.572;2023-02-15T07:56:09;101335.58;;;2.30;85.77
60611;BME280;46439;51.164;13.572;2023-02-15T07:58:38;101326.76;;;2.38;85.79
60611;BME280;46439;51.164;13.572;2023-02-15T08:01:19;101323.54;;;2.42;85.71
60611;BME280;46439;51.164;13.572;2023-02-15T08:03:49;101324.36;;;2.43;85.57
60611;BME280;46439;51.164;13.572;2023-02-15T08:06:17;101325.33;;;2.44;85.83
60611;BME280;46439;51.164;13.572;2023-02-15T08:08:46;101325.72;;;2.46;85.33
60611;BME280;46439;51.164;13.572;2023-02-15T08:11:20;101325.55;;;2.49;85.66
60611;BME280;46439;51.164;13.572;2023-02-15T08:14:03;101321.27;;;2.53;85.86
60611;BME280;46439;51.164;13.572;2023-02-15T08:16:34;101321.42;;;2.59;85.39
60611;BME280;46439;51.164;13.572;2023-02-15T08:19:05;101323.44;;;2.67;86.01
60611;BME280;46439;51.164;13.572;2023-02-15T08:21:36;101321.56;;;2.74;86.11
60611;BME280;46439;51.164;13.572;2023-02-15T08:24:07;101321.99;;;2.79;85.74
60611;BME280;46439;51.164;13.572;2023-02-15T08:26:36;101317.09;;;2.83;86.21
60611;BME280;46439;51.164;13.572;2023-02-15T08:29:07;101318.92;;;2.91;86.07
60611;BME280;46439;51.164;13.572;2023-02-15T08:31:36;101317.75;;;2.98;86.29
60611;BME280;46439;51.164;13.572;2023-02-15T08:34:06;101315.34;;;3.00;86.01
60611;BME280;46439;51.164;13.572;2023-02-15T08:36:35;101313.77;;;3.05;85.88
60611;BME280;46439;51.164;13.572;2023-02-15T08:39:05;101309.03;;;3.13;86.32
60611;BME280;46439;51.164;13.572;2023-02-15T08:41:35;101309.78;;;3.17;86.24
60611;BME280;46439;51.164;13.572;2023-02-15T08:44:06;101309.27;;;3.23;86.19
60611;BME280;46439;51.164;13.572;2023-02-15T08:46:37;101303.05;;;3.31;86.51
60611;BME280;46439;51.164;13.572;2023-02-15T08:49:06;101302.33;;;3.37;86.35
60611;BME280;46439;51.164;13.572;2023-02-15T08:51:36;101303.52;;;3.46;86.37
60611;BME280;46439;51.164;13.572;2023-02-15T08:54:07;101301.54;;;3.52;86.64
60611;BME280;46439;51.164;13.572;2023-02-15T08:56:38;101303.27;;;3.58;86.73
60611;BME280;46439;51.164;13.572;2023-02-15T08:59:12;101305.06;;;3.63;86.96
60611;BME280;46439;51.164;13.572;2023-02-15T09:01:41;101300.11;;;3.68;86.65
60611;BME280;46439;51.164;13.572;2023-02-15T09:04:11;101299.07;;;3.73;86.69
60611;BME280;46439;51.164;13.572;2023-02-15T09:06:42;101297.66;;;3.78;86.63
60611;BME280;46439;51.164;13.572;2023-02-15T09:09:12;101289.35;;;3.86;86.46
60611;BME280;46439;51.164;13.572;2023-02-15T09:11:43;101283.95;;;3.89;86.89
60611;BME280;46439;51.164;13.572;2023-02-15T09:14:13;101283.82;;;3.94;86.82
60611;BME280;46439;51.164;13.572;2023-02-15T09:16:43;101282.82;;;3.98;86.63
60611;BME280;46439;51.164;13.572;2023-02-15T09:19:18;101285.11;;;4.04;86.88
60611;BME280;46439;51.164;13.572;2023-02-15T09:21:47;101286.10;;;4.08;86.92
60611;BME280;46439;51.164;13.572;2023-02-15T09:24:17;101286.51;;;4.12;86.95
60611;BME280;46439;51.164;13.572;2023-02-15T09:26:47;101289.98;;;4.19;86.89
60611;BME280;46439;51.164;13.572;2023-02-15T09:29:17;101290.98;;;4.25;86.72
60611;BME280;46439;51.164;13.572;2023-02-15T09:31:49;101295.04;;;4.33;87.25
60611;BME280;46439;51.164;13.572;2023-02-15T09:34:19;101294.26;;;4.39;87.03
60611;BME280;46439;51.164;13.572;2023-02-15T09:36:48;101292.65;;;4.45;86.97
60611;BME280;46439;51.164;13.572;2023-02-15T09:39:19;101290.65;;;4.50;87.12
60611;BME280;46439;51.164;13.572;2023-02-15T09:42:24;101290.66;;;4.58;87.39
60611;BME280;46439;51.164;13.572;2023-02-15T09:45:18;101292.49;;;4.65;86.98
60611;BME280;46439;51.164;13.572;2023-02-15T09:48:14;101290.08;;;4.71;87.30
60611;BME280;46439;51.164;13.572;2023-02-15T09:50:57;101287.12;;;4.78;87.43
60611;BME280;46439;51.164;13.572;2023-02-15T09:53:30;101286.39;;;4.86;87.32
60611;BME280;46439;51.164;13.572;2023-02-15T09:56:09;101283.38;;;4.93;87.40
60611;BME280;46439;51.164;13.572;2023-02-15T09:58:46;101277.58;;;4.99;87.53
60611;BME280;46439;51.164;13.572;2023-02-15T10:01:27;101274.28;;;5.06;87.45
60611;BME280;46439;51.164;13.572;2023-02-15T10:04:24;101270.00;;;5.13;87.39
60611;BME280;46439;51.164;13.572;2023-02-15T10:07:05;101264.54;;;5.22;87.68
60611;BME280;46439;51.164;13.572;2023-02-15T10:09:51;101258.39;;;5.30;87.70
60611;BME280;46439;51.164;13.572;2023-02-15T10:12:43;101251.89;;;5.39;87.77
60611;BME280;46439;51.164;13.572;2023-02-15T10:15:25;101251.08;;;5.47;87.68
60611;BME280;46439;51.164;13.572;2023-02-15T10:18:11;101255.08;;;5.56;87.82
60611;BME280;46439;51.164;13.572;2023-02-15T10:20:49;101255.52;;;5.67;87.96
60611;BME280;46439;51.164;13.572;2023-02-15T10:23:38;101253.31;;;5.77;87.97
60611;BME280;46439;51.164;13.572;2023-02-15T10:26:14;101247.42;;;5.86;88.21
60611;BME280;46439;51.164;13.572;2023-02-15T10:28:48;101241.73;;;5.93;88.16
60611;BME280;46439;51.164;13.572;2023-02-15T10:31:26;101235.80;;;6.01;88.22
60611;BME280;46439;51.164;13.572;2023-02-15T10:34:16;101236.73;;;6.06;88.14
60611;BME280;46439;51.164;13.572;2023-02-15T10:37:03;101224.04;;;6.12;88.19
60611;BME280;46439;51.164;13.572;2023-02-15T10:39:45;101223.36;;;6.21;88.18
60611;BME280;46439;51.164;13.572;2023-02-15T10:42:23;101218.39;;;6.30;88.26
60611;BME280;46439;51.164;13.572;2023-02-15T10:45:09;101216.11;;;6.39;88.29
60611;BME280;46439;51.164;13.572;2023-02-15T10:47:53;101213.34;;;6.49;88.41
60611;BME280;46439;51.164;13.572;2023-02-15T10:50:34;101207.34;;;6.57;88.40
60611;BME280;46439;51.164;13.572;2023-02-15T10:53:18;101203.22;;;6.64;88.39
60611;BME280;46439;51.164;13.572;2023-02-15T10:55:58;101200.94;;;6.70;88.50
60611;BME280;46439;51.164;13.572;2023-02-15T10:58:41;101197.27;;;6.78;88.59
60611;BME280;46439;51.164;13.572;2023-02-15T11:01:18;101199.65;;;6.86;88.62
60611;BME280;46439;51.164;13.572;2023-02-15T11:04:23;101199.87;;;6.94;88.58
60611;BME280;46439;51.164;13.572;2023-02-15T11:07:02;101198.39;;;7.04;88.77
60611;BME280;46439;51.164;13.572;2023-02-15T11:09:40;101198.56;;;7.10;88.66
60611;BME280;46439;51.164;13.572;2023-02-15T11:12:13;101191.61;;;7.17;88.74
60611;BME280;46439;51.164;13.572;2023-02-15T11:14:49;101189.83;;;7.23;88.74
60611;BME280;46439;51.164;13.572;2023-02-15T11:17:22;101188.23;;;7.29;88.60
60611;BME280;46439;51.164;13.572;2023-02-15T11:19:56;101184.77;;;7.37;88.65
60611;BME280;46439;51.164;13.572;2023-02-15T11:22:26;101183.42;;;7.42;88.77
60611;BME280;46439;51.164;13.572;2023-02-15T11:24:56;101180.99;;;7.47;88.77
60611;BME280;46439;51.164;13.572;2023-02-15T11:27:29;101177.88;;;7.55;88.71
60611;BME280;46439;51.164;13.572;2023-02-15T11:30:02;101177.23;;;7.63;88.86
60611;BME280;46439;51.164;13.572;2023-02-15T11:32:34;101176.15;;;7.69;88.92
60611;BME280;46439;51.164;13.572;2023-02-15T11:35:15;101174.16;;;7.76;88.95
60611;BME280;46439;51.164;13.572;2023-02-15T11:37:45;101169.05;;;7.81;88.91
60611;BME280;46439;51.164;13.572;2023-02-15T11:40:20;101167.60;;;7.87;88.89
60611;BME280;46439;51.164;13.572;2023-02-15T11:42:53;101163.13;;;7.96;89.08
60611;BME280;46439;51.164;13.572;2023-02-15T11:45:25;101161.48;;;8.02;89.03
60611;BME280;46439;51.164;13.572;2023-02-15T11:47:54;101157.98;;;8.07;89.23
60611;BME280;46439;51.164;13.572;2023-02-15T11:50:24;101155.53;;;8.13;89.31
60611;BME280;46439;51.164;13.572;2023-02-15T11:52:56;101153.98;;;8.16;89.05
60611;BME280;46439;51.164;13.572;2023-02-15T11:55:26;101154.92;;;8.22;89.13
60611;BME280;46439;51.164;13.572;2023-02-15T11:58:01;101155.04;;;8.27;89.05
60611;BME280;46439;51.164;13.572;2023-02-15T12:00:37;101153.88;;;8.36;89.24
60611;BME280;46439;51.164;13.572;2023-02-15T12:03:17;101149.93;;;8.44;89.46
60611;BME280;46439;51.164;13.572;2023-02-15T12:05:49;101145.96;;;8.53;89.46
60611;BME280;46439;51.164;13.572;2023-02-15T12:08:20;101141.55;;;8.58;89.53
60611;BME280;46439;51.164;13.572;2023-02-15T12:11:00;101143.23;;;8.63;89.28
60611;BME280;46439;51.164;13.572;2023-02-15T12:13:30;101142.36;;;8.70;89.47
60611;BME280;46439;51.164;13.572;2023-02-15T12:16:04;101138.29;;;8.75;89.51
60611;BME280;46439;51.164;13.572;2023-02-15T12:18:38;101133.80;;;8.79;89.38
60611;BME280;46439;51.164;13.572;2023-02-15T12:21:10;101130.85;;;8.80;89.40
60611;BME280;46439;51.164;13.572;2023-02-15T12:23:46;101131.00;;;8.82;89.18
60611;BME280;46439;51.164;13.572;2023-02-15T12:26:19;101124.15;;;8.86;89.08
60611;BME280;46439;51.164;13.572;2023-02-15T12:28:52;101120.55;;;8.90;89.12
60611;BME280;46439;51.164;13.572;2023-02-15T12:31:24;101119.45;;;8.95;89.22
60611;BME280;46439;51.164;13.572;2023-02-15T12:33:55;101116.33;;;9.00;89.23
60611;BME280;46439;51.164;13.572;2023-02-15T12:36:27;101112.30;;;9.02;89.19
60611;BME280;46439;51.164;13.572;2023-02-15T12:39:18;101108.86;;;9.00;89.18
60611;BME280;46439;51.164;13.572;2023-02-15T12:41:57;101110.05;;;8.99;89.15
60611;BME280;46439;51.164;13.572;2023-02-15T12:44:28;101109.19;;;8.99;88.72
60611;BME280;46439;51.164;13.572;2023-02-15T12:47:02;101107.67;;;9.00;88.78
60611;BME280;46439;51.164;13.572;2023-02-15T12:49:33;101105.50;;;9.00;88.93
60611;BME280;46439;51.164;13.572;2023-02-15T12:52:03;101107.45;;;9.04;88.79
60611;BME280;46439;51.164;13.572;2023-02-15T12:54:38;101105.52;;;9.08;88.85
60611;BME280;46439;51.164;13.572;2023-02-15T12:57:26;101101.02;;;9.10;88.92
60611;BME280;46439;51.164;13.572;2023-02-15T12:59:57;101094.41;;;9.13;88.91
60611;BME280;46439;51.164;13.572;2023-02-15T13:02:30;101094.30;;;9.16;88.81
60611;BME280;46439;51.164;13.572;2023-02-15T13:05:10;101092.15;;;9.20;89.26
60611;BME280;46439;51.164;13.572;2023-02-15T13:07:47;101094.23;;;9.23;89.09
60611;BME280;46439;51.164;13.572;2023-02-15T13:10:26;101098.10;;;9.22;88.89
60611;BME280;46439;51.164;13.572;2023-02-15T13:12:56;101099.72;;;9.24;88.74
60611;BME280;46439;51.164;13.572;2023-02-15T13:15:30;101098.37;;;9.25;88.95
60611;BME280;46439;51.164;13.572;2023-02-15T13:18:01;101098.61;;;9.28;88.85
60611;BME280;46439;51.164;13.572;2023-02-15T13:20:31;101101.88;;;9.32;88.89
60611;BME280;46439;51.164;13.572;2023-02-15T13:23:03;101095.95;;;9.34;88.97